Terminal Aerodrome Forecast
Issued by NWS Knoxville/Tri Cities, TN

Home | Current Version | Previous Version | Text Only | Print | Product List | Glossary On
Versions: 1 2 3 4 5 6 7 8 9 10 11 12 13 14 15 16 17 18 19 20 21 22 23 24 25 26 27 28 29 30 31 32 33 34 35 36 37 38
000
FTUS44 KMRX 190533
TAFCHA
TAF
KCHA 190533Z 1906/2006 00000KT P6SM FEW080 BKN250
     FM191200 VRB04KT P6SM SCT050 BKN080
     FM191800 11005KT P6SM VCSH SCT025 OVC035
     FM192300 14007KT 5SM -RA BR OVC020
     FM200500 18006KT 2SM -RA BR OVC007=

USA.gov is the U.S. government's official web portal to all federal, state and local government web resources and services.